createdAt,value
2018-09-27T00:00:48.472Z,10.70
2018-09-27T00:03:17.055Z,10.60
2018-09-27T00:05:45.831Z,10.50
2018-09-27T00:08:15.408Z,10.40
2018-09-27T00:10:44.001Z,10.30
2018-09-27T00:13:14.528Z,10.20
2018-09-27T00:15:44.047Z,10.10
2018-09-27T00:18:16.418Z,10.00
2018-09-27T00:20:52.387Z,10.00
2018-09-27T00:23:21.899Z,9.80
2018-09-27T00:25:50.507Z,9.70
2018-09-27T00:28:19.036Z,9.60
2018-09-27T00:31:00.443Z,9.50
2018-09-27T00:33:29.020Z,9.40
2018-09-27T00:35:57.530Z,9.30
2018-09-27T00:38:26.015Z,9.20
2018-09-27T00:40:55.559Z,9.10
2018-09-27T00:43:25.102Z,9.00
2018-09-27T00:45:59.914Z,8.90
2018-09-27T00:48:32.204Z,8.90
2018-09-27T00:51:01.784Z,8.90
2018-09-27T00:53:34.851Z,8.90
2018-09-27T00:56:04.449Z,9.00
2018-09-27T00:58:33.024Z,8.90
2018-09-27T01:01:09.435Z,8.80
2018-09-27T01:03:45.969Z,8.70
2018-09-27T01:06:16.058Z,8.70
2018-09-27T01:08:45.646Z,8.80
2018-09-27T01:11:16.190Z,8.80
2018-09-27T01:13:48.146Z,8.70
2018-09-27T01:16:17.689Z,8.70
2018-09-27T01:18:48.248Z,8.70
2018-09-27T01:21:20.153Z,8.80
2018-09-27T01:23:48.719Z,8.80
2018-09-27T01:26:17.232Z,8.70
2018-09-27T01:28:46.760Z,8.60
2018-09-27T01:31:18.907Z,8.60
2018-09-27T01:34:03.375Z,8.70
2018-09-27T01:36:39.592Z,8.70
2018-09-27T01:39:09.230Z,8.70
2018-09-27T01:41:37.724Z,8.70
2018-09-27T01:44:08.242Z,8.70
2018-09-27T01:46:37.744Z,8.70
2018-09-27T01:49:06.488Z,8.60
2018-09-27T01:51:35.062Z,8.60
2018-09-27T01:54:13.700Z,8.60
2018-09-27T01:56:44.379Z,8.50
2018-09-27T01:59:12.910Z,8.60
2018-09-27T02:01:46.316Z,8.60
2018-09-27T02:04:15.843Z,8.50
2018-09-27T02:06:48.575Z,8.50
2018-09-27T02:09:18.547Z,8.50
2018-09-27T02:11:49.030Z,8.40
2018-09-27T02:14:18.588Z,8.40
2018-09-27T02:16:47.515Z,8.40
2018-09-27T02:19:23.942Z,8.30
2018-09-27T02:21:52.601Z,8.20
2018-09-27T02:24:22.123Z,8.20
2018-09-27T02:26:51.644Z,8.20
2018-09-27T02:29:24.763Z,8.10
2018-09-27T02:31:53.307Z,8.10
2018-09-27T02:34:21.925Z,8.00
2018-09-27T02:36:52.464Z,8.00
2018-09-27T02:39:20.977Z,8.00
2018-09-27T02:41:49.556Z,8.00
2018-09-27T02:44:18.031Z,8.00
2018-09-27T02:46:46.558Z,8.00
2018-09-27T02:49:15.056Z,7.90
2018-09-27T02:51:45.733Z,7.90
2018-09-27T02:54:22.333Z,7.90
2018-09-27T02:56:54.632Z,7.80
2018-09-27T02:59:24.126Z,7.80
2018-09-27T03:01:52.691Z,7.80
2018-09-27T03:04:21.332Z,7.70
2018-09-27T03:06:49.856Z,7.70
2018-09-27T03:09:19.591Z,7.80
2018-09-27T03:11:49.166Z,7.80
2018-09-27T03:14:17.727Z,7.80
2018-09-27T03:16:46.619Z,7.90
2018-09-27T03:19:16.211Z,7.80
2018-09-27T03:21:44.733Z,7.90
2018-09-27T03:24:13.526Z,7.90
2018-09-27T03:26:42.279Z,7.90
2018-09-27T03:29:10.895Z,7.90
2018-09-27T03:31:43.054Z,7.80
2018-09-27T03:34:15.643Z,7.80
2018-09-27T03:36:52.576Z,7.80
2018-09-27T03:39:21.163Z,7.90
2018-09-27T03:41:49.665Z,7.90
2018-09-27T03:44:20.271Z,7.90
2018-09-27T03:47:02.631Z,8.00
2018-09-27T03:49:32.291Z,8.10
2018-09-27T03:52:04.913Z,8.10
2018-09-27T03:54:33.606Z,8.20
2018-09-27T03:57:13.062Z,8.20
2018-09-27T03:59:42.676Z,8.20
2018-09-27T04:02:14.813Z,8.20
2018-09-27T04:04:43.835Z,8.20
2018-09-27T04:07:20.679Z,8.10
2018-09-27T04:09:54.133Z,8.20
2018-09-27T04:12:24.774Z,8.30
2018-09-27T04:14:53.323Z,8.40
2018-09-27T04:17:22.893Z,8.40
2018-09-27T04:19:51.499Z,8.50
2018-09-27T04:22:22.118Z,8.40
2018-09-27T04:24:51.128Z,8.40
2018-09-27T04:27:19.622Z,8.40
2018-09-27T04:29:52.007Z,8.40
2018-09-27T04:32:26.256Z,8.30
2018-09-27T04:34:55.795Z,8.20
2018-09-27T04:37:25.372Z,8.20
2018-09-27T04:39:54.336Z,8.20
2018-09-27T04:42:25.201Z,8.20
2018-09-27T04:45:00.110Z,8.20
2018-09-27T04:47:29.727Z,8.20
2018-09-27T04:49:59.142Z,8.20
2018-09-27T04:52:27.724Z,8.10
2018-09-27T04:54:58.686Z,8.10
2018-09-27T04:57:35.599Z,8.00
2018-09-27T05:00:05.367Z,8.00
2018-09-27T05:02:33.928Z,7.90
2018-09-27T05:05:03.599Z,7.90
2018-09-27T05:07:33.136Z,8.00
2018-09-27T05:10:02.938Z,8.00
2018-09-27T05:12:31.405Z,8.00
2018-09-27T05:14:59.954Z,7.90
2018-09-27T05:17:28.551Z,7.80
2018-09-27T05:20:01.600Z,7.70
2018-09-27T05:22:31.063Z,7.70
2018-09-27T05:25:00.681Z,7.70
2018-09-27T05:27:29.306Z,7.70
2018-09-27T05:30:01.847Z,7.80
2018-09-27T05:32:31.442Z,7.90
2018-09-27T05:35:02.023Z,8.10
2018-09-27T05:37:32.541Z,8.30
2018-09-27T05:40:02.026Z,8.30
2018-09-27T05:42:30.514Z,8.50
2018-09-27T05:44:59.099Z,8.50
2018-09-27T05:47:29.635Z,8.60
2018-09-27T05:50:00.171Z,8.60
2018-09-27T05:52:28.730Z,8.70
2018-09-27T05:55:03.102Z,8.70
2018-09-27T05:57:32.673Z,8.70
2018-09-27T06:00:02.252Z,8.70
2018-09-27T06:02:30.813Z,8.70
2018-09-27T06:04:59.366Z,8.70
2018-09-27T06:07:27.902Z,8.80
2018-09-27T06:09:56.371Z,8.80
2018-09-27T06:12:24.929Z,9.00
2018-09-27T06:14:53.383Z,9.10
2018-09-27T06:17:27.840Z,9.10
2018-09-27T06:20:07.434Z,9.10
2018-09-27T06:22:41.666Z,9.10
2018-09-27T06:25:11.166Z,9.20
2018-09-27T06:27:39.735Z,9.20
2018-09-27T06:30:09.258Z,9.20
2018-09-27T06:32:41.472Z,9.30
2018-09-27T06:35:10.089Z,9.40
2018-09-27T06:37:39.577Z,9.40
2018-09-27T06:40:08.140Z,9.40
2018-09-27T06:42:39.882Z,9.40
2018-09-27T06:45:09.218Z,9.40
2018-09-27T06:47:38.860Z,9.40
2018-09-27T06:50:08.427Z,9.50
2018-09-27T06:52:37.966Z,9.50
2018-09-27T06:55:07.634Z,9.60
2018-09-27T06:57:36.163Z,9.60
2018-09-27T07:00:07.607Z,9.70
2018-09-27T07:02:42.191Z,9.80
2018-09-27T07:05:15.324Z,9.90
2018-09-27T07:07:43.915Z,10.00
2018-09-27T07:10:12.479Z,10.10
2018-09-27T07:12:41.030Z,10.30
2018-09-27T07:15:10.520Z,10.40
2018-09-27T07:17:39.029Z,10.60
2018-09-27T07:20:09.587Z,10.80
2018-09-27T07:22:38.090Z,10.90
2018-09-27T07:25:06.776Z,11.00
2018-09-27T07:27:41.082Z,11.10
2018-09-27T07:30:09.666Z,11.20
2018-09-27T07:32:39.202Z,11.30
2018-09-27T07:35:07.694Z,11.40
2018-09-27T07:37:37.262Z,11.50
2018-09-27T07:40:08.895Z,11.70
2018-09-27T07:42:41.449Z,11.80
2018-09-27T07:45:10.018Z,12.00
2018-09-27T07:47:39.532Z,12.20
2018-09-27T07:50:09.218Z,12.40
2018-09-27T07:52:38.699Z,12.50
2018-09-27T07:55:07.151Z,12.60
2018-09-27T07:57:35.739Z,12.80
2018-09-27T08:00:07.626Z,12.90
2018-09-27T08:02:46.504Z,13.10
2018-09-27T08:05:15.986Z,13.30
2018-09-27T08:07:44.622Z,13.40
2018-09-27T08:10:16.311Z,13.50
2018-09-27T08:12:48.786Z,13.70
2018-09-27T08:15:22.365Z,13.80
2018-09-27T08:17:53.285Z,13.90
2018-09-27T08:20:30.968Z,14.10
2018-09-27T08:23:04.213Z,14.20
2018-09-27T08:25:35.645Z,14.30
2018-09-27T08:28:07.203Z,14.50
2018-09-27T08:30:36.804Z,14.60
2018-09-27T08:33:05.310Z,14.70
2018-09-27T08:35:41.779Z,14.80
2018-09-27T08:38:10.299Z,14.90
2018-09-27T08:40:38.888Z,15.00
2018-09-27T08:43:11.735Z,15.00
2018-09-27T08:45:43.619Z,15.20
2018-09-27T08:48:18.229Z,15.30
2018-09-27T08:50:47.216Z,15.40
2018-09-27T08:53:15.677Z,15.60
2018-09-27T08:55:49.172Z,15.70
2018-09-27T08:58:18.835Z,15.80
2018-09-27T09:00:47.400Z,15.90
2018-09-27T09:03:16.081Z,16.10
2018-09-27T09:05:58.645Z,16.20
2018-09-27T09:08:27.388Z,16.20
2018-09-27T09:10:55.907Z,16.40
2018-09-27T09:13:27.713Z,16.60
2018-09-27T09:15:57.630Z,16.60
2018-09-27T09:18:31.613Z,16.80
2018-09-27T09:21:14.436Z,17.00
2018-09-27T09:23:45.705Z,17.10
2018-09-27T09:26:16.527Z,17.10
2018-09-27T09:28:46.017Z,17.20
2018-09-27T09:31:14.641Z,17.20
2018-09-27T09:33:43.195Z,17.30
2018-09-27T09:36:11.752Z,17.50
2018-09-27T09:38:40.221Z,17.60
2018-09-27T09:41:08.752Z,17.70
2018-09-27T09:43:40.898Z,17.80
2018-09-27T09:46:09.495Z,18.00
2018-09-27T09:48:38.051Z,18.00
2018-09-27T09:51:06.583Z,18.10
2018-09-27T09:53:35.099Z,18.30
2018-09-27T09:56:04.199Z,18.40
2018-09-27T09:58:36.093Z,18.40
2018-09-27T10:01:06.684Z,18.50
2018-09-27T10:03:36.231Z,18.60
2018-09-27T10:06:06.171Z,18.80
2018-09-27T10:08:34.684Z,19.00
2018-09-27T10:11:03.240Z,19.30
2018-09-27T10:13:31.734Z,19.70
2018-09-27T10:16:02.286Z,20.30
2018-09-27T10:18:31.848Z,21.40
2018-09-27T10:21:03.660Z,22.80
2018-09-27T10:23:33.213Z,24.10
2018-09-27T10:26:01.793Z,24.60
2018-09-27T10:28:32.302Z,24.60
2018-09-27T10:31:00.783Z,25.10
2018-09-27T10:33:31.838Z,25.00
2018-09-27T10:36:02.521Z,24.90
2018-09-27T10:38:35.583Z,25.70
2018-09-27T10:41:04.175Z,25.90
2018-09-27T10:43:32.710Z,26.10
2018-09-27T10:46:02.826Z,26.60
2018-09-27T10:48:33.420Z,27.20
2018-09-27T10:51:02.043Z,26.70
2018-09-27T10:53:43.769Z,26.80
2018-09-27T10:56:12.333Z,26.60
2018-09-27T10:58:44.311Z,27.20
2018-09-27T11:01:12.867Z,27.50
2018-09-27T11:03:41.448Z,27.20
2018-09-27T11:06:10.056Z,27.60
2018-09-27T11:08:44.235Z,28.00
2018-09-27T11:11:12.836Z,28.50
2018-09-27T11:13:41.285Z,28.70
2018-09-27T11:16:13.899Z,28.40
2018-09-27T11:18:42.503Z,28.40
2018-09-27T11:21:11.126Z,28.40
2018-09-27T11:23:40.736Z,28.40
2018-09-27T11:26:09.623Z,28.30
2018-09-27T11:28:44.499Z,28.70
2018-09-27T11:31:19.322Z,29.10
2018-09-27T11:33:48.946Z,29.40
2018-09-27T11:36:17.530Z,28.90
2018-09-27T11:38:48.137Z,28.70
2018-09-27T11:41:17.783Z,28.60
2018-09-27T11:43:46.326Z,29.20
2018-09-27T11:46:14.779Z,29.40
2018-09-27T11:48:44.059Z,30.00
2018-09-27T11:51:12.707Z,30.20
2018-09-27T11:53:44.042Z,29.90
2018-09-27T11:56:13.832Z,30.20
2018-09-27T11:58:44.864Z,29.50
2018-09-27T12:01:13.598Z,29.60
2018-09-27T12:03:43.161Z,29.50
2018-09-27T12:06:11.645Z,30.00
2018-09-27T12:08:41.589Z,30.30
2018-09-27T12:11:10.113Z,30.70
2018-09-27T12:13:43.671Z,31.00
2018-09-27T12:16:13.446Z,31.60
2018-09-27T12:18:42.387Z,31.90
2018-09-27T12:21:11.319Z,32.20
2018-09-27T12:23:39.771Z,32.30
2018-09-27T12:26:08.833Z,31.80
2018-09-27T12:28:37.460Z,32.30
2018-09-27T12:31:07.326Z,33.30
2018-09-27T12:33:36.042Z,33.20
2018-09-27T12:36:04.761Z,33.30
2018-09-27T12:38:38.959Z,32.70
2018-09-27T12:41:09.518Z,31.90
2018-09-27T12:43:38.130Z,31.30
2018-09-27T12:46:07.170Z,32.30
2018-09-27T12:48:37.809Z,32.90
2018-09-27T12:51:06.519Z,33.70
2018-09-27T12:53:36.035Z,34.40
2018-09-27T12:56:04.564Z,34.60
2018-09-27T12:58:33.028Z,34.80
2018-09-27T13:01:01.601Z,36.10
2018-09-27T13:03:30.125Z,36.50
2018-09-27T13:05:59.729Z,36.60
2018-09-27T13:08:28.425Z,36.90
2018-09-27T13:10:56.994Z,37.20
2018-09-27T13:13:38.932Z,38.20
2018-09-27T13:16:07.539Z,38.20
2018-09-27T13:18:36.048Z,38.20
2018-09-27T13:21:04.615Z,37.80
2018-09-27T13:23:34.218Z,37.30
2018-09-27T13:26:02.864Z,36.50
2018-09-27T13:28:31.466Z,35.50
2018-09-27T13:31:04.379Z,34.90
2018-09-27T13:33:32.942Z,35.70
2018-09-27T13:36:08.119Z,36.00
2018-09-27T13:38:38.626Z,35.80
2018-09-27T13:41:07.215Z,37.10
2018-09-27T13:43:35.771Z,36.60
2018-09-27T13:46:04.359Z,35.60
2018-09-27T13:48:39.677Z,35.90
2018-09-27T13:51:10.247Z,35.50
2018-09-27T13:53:42.591Z,34.50
2018-09-27T13:56:12.102Z,35.50
2018-09-27T13:58:43.304Z,36.00
2018-09-27T14:01:12.846Z,36.00
2018-09-27T14:03:42.390Z,35.30
2018-09-27T14:06:10.968Z,34.50
2018-09-27T14:08:39.413Z,35.00
2018-09-27T14:11:07.946Z,35.70
2018-09-27T14:13:47.630Z,35.70
2018-09-27T14:16:17.279Z,34.80
2018-09-27T14:18:45.893Z,35.20
2018-09-27T14:21:15.441Z,35.40
2018-09-27T14:23:45.060Z,35.30
2018-09-27T14:26:13.919Z,33.70
2018-09-27T14:28:42.526Z,34.30
2018-09-27T14:31:11.111Z,34.40
2018-09-27T14:33:39.742Z,32.70
2018-09-27T14:36:11.758Z,31.80
2018-09-27T14:38:41.348Z,30.60
2018-09-27T14:41:11.888Z,30.00
2018-09-27T14:43:44.615Z,29.50
2018-09-27T14:46:13.217Z,29.80
2018-09-27T14:48:41.811Z,29.50
2018-09-27T14:51:11.539Z,29.40
2018-09-27T14:53:41.242Z,29.80
2018-09-27T14:56:10.871Z,29.00
2018-09-27T14:58:44.253Z,28.90
2018-09-27T15:01:13.871Z,29.40
2018-09-27T15:03:42.477Z,29.50
2018-09-27T15:06:15.990Z,29.80
2018-09-27T15:08:45.021Z,30.10
2018-09-27T15:11:13.996Z,30.50
2018-09-27T15:13:43.567Z,30.60
2018-09-27T15:16:12.249Z,30.00
2018-09-27T15:18:40.815Z,29.20
2018-09-27T15:21:09.451Z,28.30
2018-09-27T15:23:39.907Z,27.70
2018-09-27T15:26:12.368Z,27.60
2018-09-27T15:28:44.865Z,27.60
2018-09-27T15:31:16.759Z,27.20
2018-09-27T15:33:52.970Z,26.60
2018-09-27T15:36:28.400Z,26.50
2018-09-27T15:39:02.955Z,26.50
2018-09-27T15:41:31.597Z,26.20
2018-09-27T15:44:00.011Z,25.90
2018-09-27T15:46:32.277Z,26.30
2018-09-27T15:49:10.488Z,26.60
2018-09-27T15:51:40.626Z,26.30
2018-09-27T15:54:10.131Z,25.90
2018-09-27T15:56:38.747Z,25.80
2018-09-27T15:59:07.288Z,25.50
2018-09-27T16:01:36.052Z,24.80
2018-09-27T16:04:04.626Z,24.70
2018-09-27T16:06:33.879Z,25.00
2018-09-27T16:09:02.654Z,25.00
2018-09-27T16:11:36.308Z,24.80
2018-09-27T16:14:04.863Z,24.40
2018-09-27T16:16:35.708Z,24.30
2018-09-27T16:19:06.568Z,24.20
2018-09-27T16:21:37.863Z,23.90
2018-09-27T16:24:15.271Z,23.60
2018-09-27T16:26:48.347Z,23.40
2018-09-27T16:29:20.922Z,23.00
2018-09-27T16:31:52.156Z,22.60
2018-09-27T16:34:29.741Z,22.10
2018-09-27T16:37:09.609Z,21.80
2018-09-27T16:39:39.941Z,21.60
2018-09-27T16:42:11.767Z,21.40
2018-09-27T16:44:43.754Z,21.40
2018-09-27T16:47:15.154Z,21.30
2018-09-27T16:49:45.502Z,21.10
2018-09-27T16:52:18.075Z,21.10
2018-09-27T16:54:53.542Z,21.00
2018-09-27T16:57:24.939Z,20.90
2018-09-27T16:59:57.767Z,20.80
2018-09-27T17:02:29.955Z,20.70
2018-09-27T17:05:03.706Z,20.70
2018-09-27T17:07:44.846Z,20.60
2018-09-27T17:10:19.151Z,20.50
2018-09-27T17:12:51.561Z,20.40
2018-09-27T17:15:24.097Z,20.20
2018-09-27T17:17:54.617Z,20.10
2018-09-27T17:20:24.717Z,19.90
2018-09-27T17:23:04.267Z,19.80
2018-09-27T17:25:36.096Z,19.60
2018-09-27T17:28:04.710Z,19.40
2018-09-27T17:30:33.332Z,19.20
2018-09-27T17:33:07.918Z,19.00
2018-09-27T17:35:36.483Z,18.90
2018-09-27T17:38:06.231Z,18.90
2018-09-27T17:40:35.317Z,18.80
2018-09-27T17:43:04.976Z,18.70
2018-09-27T17:45:39.227Z,18.60
2018-09-27T17:48:14.903Z,18.50
2018-09-27T17:50:44.772Z,18.40
2018-09-27T17:53:14.760Z,18.30
2018-09-27T17:55:43.389Z,18.20
2018-09-27T17:58:13.944Z,18.20
2018-09-27T18:00:44.510Z,18.10
2018-09-27T18:03:17.132Z,18.10
2018-09-27T18:05:45.794Z,18.10
2018-09-27T18:08:15.515Z,18.00
2018-09-27T18:10:45.112Z,18.00
2018-09-27T18:13:13.991Z,17.90
2018-09-27T18:15:42.804Z,17.80
2018-09-27T18:18:11.712Z,17.70
2018-09-27T18:20:40.343Z,17.70
2018-09-27T18:23:10.828Z,17.50
2018-09-27T18:25:43.171Z,17.20
2018-09-27T18:28:11.844Z,16.80
2018-09-27T18:30:42.335Z,16.70
2018-09-27T18:33:10.969Z,16.60
2018-09-27T18:35:40.371Z,16.50
2018-09-27T18:38:09.100Z,16.40
2018-09-27T18:40:43.431Z,16.30
2018-09-27T18:43:12.092Z,16.10
2018-09-27T18:45:42.613Z,16.00
2018-09-27T18:48:14.309Z,15.80
2018-09-27T18:50:43.983Z,15.60
2018-09-27T18:53:16.468Z,15.50
2018-09-27T18:55:47.082Z,15.40
2018-09-27T18:58:17.658Z,15.40
2018-09-27T19:00:46.297Z,15.40
2018-09-27T19:03:15.404Z,15.40
2018-09-27T19:05:48.232Z,15.40
2018-09-27T19:08:16.916Z,15.30
2018-09-27T19:10:49.691Z,15.10
2018-09-27T19:13:18.271Z,15.10
2018-09-27T19:15:46.799Z,14.90
2018-09-27T19:18:15.388Z,14.80
2018-09-27T19:20:44.907Z,14.70
2018-09-27T19:23:14.496Z,14.70
2018-09-27T19:25:55.483Z,14.70
2018-09-27T19:28:30.115Z,14.70
2018-09-27T19:30:58.767Z,14.60
2018-09-27T19:33:27.327Z,14.50
2018-09-27T19:35:57.998Z,14.30
2018-09-27T19:38:26.615Z,14.20
2018-09-27T19:40:56.137Z,14.20
2018-09-27T19:43:24.715Z,14.20
2018-09-27T19:45:55.339Z,14.10
2018-09-27T19:48:23.874Z,14.00
2018-09-27T19:50:53.427Z,13.90
2018-09-27T19:53:21.956Z,13.90
2018-09-27T19:55:50.563Z,13.80
2018-09-27T19:58:21.149Z,13.80
2018-09-27T20:00:49.877Z,13.80
2018-09-27T20:03:19.507Z,13.80
2018-09-27T20:05:49.063Z,13.80
2018-09-27T20:08:17.598Z,13.70
2018-09-27T20:10:47.147Z,13.70
2018-09-27T20:13:19.610Z,13.60
2018-09-27T20:15:48.135Z,13.50
2018-09-27T20:18:16.715Z,13.40
2018-09-27T20:20:45.237Z,13.40
2018-09-27T20:23:14.028Z,13.40
2018-09-27T20:25:43.592Z,13.30
2018-09-27T20:28:13.138Z,13.30
2018-09-27T20:30:41.839Z,13.20
2018-09-27T20:33:11.372Z,13.10
2018-09-27T20:35:40.966Z,13.00
2018-09-27T20:38:12.019Z,12.90
2018-09-27T20:40:41.614Z,12.80
2018-09-27T20:43:11.258Z,12.70
2018-09-27T20:45:39.885Z,12.70
2018-09-27T20:48:08.431Z,12.80
2018-09-27T20:50:40.383Z,12.90
2018-09-27T20:53:10.227Z,12.90
2018-09-27T20:55:38.790Z,12.90
2018-09-27T20:58:08.139Z,12.80
2018-09-27T21:00:38.746Z,12.80
2018-09-27T21:03:07.380Z,12.80
2018-09-27T21:05:35.988Z,12.70
2018-09-27T21:08:07.959Z,12.70
2018-09-27T21:10:36.520Z,12.80
2018-09-27T21:13:06.459Z,12.80
2018-09-27T21:15:34.992Z,12.80
2018-09-27T21:18:03.727Z,12.90
2018-09-27T21:20:33.247Z,13.00
2018-09-27T21:23:03.881Z,13.00
2018-09-27T21:25:34.468Z,13.00
2018-09-27T21:28:03.103Z,12.90
2018-09-27T21:30:31.826Z,12.90
2018-09-27T21:33:00.405Z,12.80
2018-09-27T21:35:29.721Z,12.60
2018-09-27T21:37:59.300Z,12.50
2018-09-27T21:40:27.837Z,12.40
2018-09-27T21:42:56.414Z,12.40
2018-09-27T21:45:26.329Z,12.30
2018-09-27T21:47:54.918Z,12.30
2018-09-27T21:50:24.461Z,12.50
2018-09-27T21:52:53.144Z,12.60
2018-09-27T21:55:23.770Z,12.90
2018-09-27T21:57:52.284Z,13.30
2018-09-27T22:00:21.981Z,13.40
2018-09-27T22:02:54.315Z,13.40
2018-09-27T22:05:23.891Z,13.50
2018-09-27T22:08:00.715Z,13.40
2018-09-27T22:10:34.000Z,13.40
2018-09-27T22:13:03.600Z,13.40
2018-09-27T22:15:33.186Z,13.40
2018-09-27T22:18:02.715Z,13.40
2018-09-27T22:20:31.310Z,13.50
2018-09-27T22:23:05.577Z,13.40
2018-09-27T22:25:36.112Z,13.30
2018-09-27T22:28:05.690Z,13.40
2018-09-27T22:30:37.667Z,13.40
2018-09-27T22:33:07.271Z,13.30
2018-09-27T22:35:35.874Z,13.30
2018-09-27T22:38:15.078Z,13.40
2018-09-27T22:40:55.756Z,13.40
2018-09-27T22:43:25.286Z,13.50
2018-09-27T22:45:54.975Z,13.50
2018-09-27T22:48:26.672Z,13.50
2018-09-27T22:50:55.254Z,13.30
2018-09-27T22:53:23.754Z,13.40
2018-09-27T22:55:52.396Z,13.40
2018-09-27T22:58:22.943Z,13.40
2018-09-27T23:00:51.435Z,13.40
2018-09-27T23:03:25.843Z,13.20
2018-09-27T23:05:54.343Z,12.90
2018-09-27T23:08:23.984Z,12.60
2018-09-27T23:10:52.501Z,12.30
2018-09-27T23:13:21.079Z,12.10
2018-09-27T23:15:51.603Z,12.00
2018-09-27T23:18:21.123Z,11.80
2018-09-27T23:20:50.727Z,11.60
2018-09-27T23:23:19.258Z,11.40
2018-09-27T23:25:47.864Z,11.30
2018-09-27T23:28:20.174Z,11.30
2018-09-27T23:30:50.799Z,11.10
2018-09-27T23:33:20.376Z,11.10
2018-09-27T23:35:51.217Z,11.00
2018-09-27T23:38:19.814Z,11.00
2018-09-27T23:40:48.339Z,11.10
2018-09-27T23:43:16.859Z,11.30
2018-09-27T23:45:52.590Z,11.70
2018-09-27T23:48:21.217Z,12.10
2018-09-27T23:50:49.725Z,12.20
2018-09-27T23:53:18.784Z,12.20
2018-09-27T23:55:47.421Z,12.20
2018-09-27T23:58:15.987Z,12.30
